createdAt,value
2019-03-28T00:01:32.724Z,24.90
2019-03-28T00:04:01.179Z,24.10
2019-03-28T00:06:29.922Z,25.97
2019-03-28T00:08:58.498Z,23.20
2019-03-28T00:11:27.060Z,27.07
2019-03-28T00:13:56.114Z,25.17
2019-03-28T00:16:24.630Z,28.83
2019-03-28T00:18:53.259Z,24.45
2019-03-28T00:21:22.031Z,29.48
2019-03-28T00:23:55.070Z,30.32
2019-03-28T00:26:30.224Z,26.95
2019-03-28T00:28:54.239Z,24.60
2019-03-28T00:31:42.606Z,25.30
2019-03-28T00:34:11.112Z,24.80
2019-03-28T00:36:39.531Z,28.17
2019-03-28T00:39:08.172Z,28.60
2019-03-28T00:41:36.657Z,25.12
2019-03-28T00:44:05.230Z,30.35
2019-03-28T00:46:34.116Z,25.55
2019-03-28T00:49:02.625Z,26.07
2019-03-28T00:51:31.062Z,28.83
2019-03-28T00:53:59.671Z,28.20
2019-03-28T00:56:28.227Z,33.28
2019-03-28T00:58:56.827Z,29.15
2019-03-28T01:01:25.906Z,32.58
2019-03-28T01:03:54.374Z,29.35
2019-03-28T01:06:22.870Z,31.48
2019-03-28T01:08:51.842Z,25.10
2019-03-28T01:11:20.307Z,23.92
2019-03-28T01:13:48.873Z,30.95
2019-03-28T01:16:18.330Z,29.95
2019-03-28T01:18:46.870Z,34.27
2019-03-28T01:21:15.262Z,25.68
2019-03-28T01:23:43.803Z,26.93
2019-03-28T01:26:13.762Z,37.13
2019-03-28T01:28:42.206Z,31.05
2019-03-28T01:31:10.787Z,31.37
2019-03-28T01:33:39.226Z,28.42
2019-03-28T01:36:07.677Z,31.90
2019-03-28T01:38:36.569Z,34.63
2019-03-28T01:41:05.101Z,33.35
2019-03-28T01:43:33.549Z,31.48
2019-03-28T01:46:02.390Z,31.57
2019-03-28T01:48:30.941Z,28.12
2019-03-28T01:50:59.456Z,27.05
2019-03-28T01:53:28.667Z,26.97
2019-03-28T01:55:57.157Z,32.30
2019-03-28T01:58:25.700Z,25.45
2019-03-28T02:00:54.505Z,25.72
2019-03-28T02:03:23.266Z,23.62
2019-03-28T02:05:56.293Z,31.23
2019-03-28T02:08:25.074Z,29.23
2019-03-28T02:10:53.796Z,27.85
2019-03-28T02:13:22.393Z,43.48
2019-03-28T02:15:50.822Z,28.27
2019-03-28T02:18:19.605Z,28.27
2019-03-28T02:20:48.422Z,28.25
2019-03-28T02:23:16.882Z,29.32
2019-03-28T02:25:45.427Z,27.17
2019-03-28T02:28:14.108Z,27.65
2019-03-28T02:30:42.563Z,33.80
2019-03-28T02:33:10.993Z,25.00
2019-03-28T02:35:42.760Z,28.25
2019-03-28T02:38:11.202Z,27.70
2019-03-28T02:40:59.266Z,27.27
2019-03-28T02:43:27.820Z,28.42
2019-03-28T02:45:56.590Z,34.25
2019-03-28T02:48:25.753Z,30.70
2019-03-28T02:50:54.435Z,25.02
2019-03-28T02:53:23.083Z,33.10
2019-03-28T02:55:51.651Z,31.93
2019-03-28T02:58:20.212Z,30.65
2019-03-28T03:00:48.747Z,23.70
2019-03-28T03:03:17.405Z,26.12
2019-03-28T03:05:45.910Z,27.32
2019-03-28T03:08:14.502Z,30.27
2019-03-28T03:10:43.993Z,30.32
2019-03-28T03:13:12.707Z,33.38
2019-03-28T03:15:41.286Z,31.02
2019-03-28T03:18:10.092Z,27.67
2019-03-28T03:20:38.577Z,35.78
2019-03-28T03:23:07.344Z,25.37
2019-03-28T03:25:36.093Z,24.70
2019-03-28T03:28:04.661Z,24.12
2019-03-28T03:30:33.130Z,24.20
2019-03-28T03:33:01.802Z,26.57
2019-03-28T03:35:30.217Z,27.37
2019-03-28T03:37:58.775Z,28.60
2019-03-28T03:40:29.397Z,26.45
2019-03-28T03:42:58.617Z,30.10
2019-03-28T03:45:27.294Z,24.87
2019-03-28T03:47:55.907Z,28.65
2019-03-28T03:50:29.718Z,27.13
2019-03-28T03:52:59.250Z,25.95
2019-03-28T03:55:28.147Z,24.80
2019-03-28T03:58:13.650Z,27.87
2019-03-28T04:00:34.877Z,31.57
2019-03-28T04:03:03.455Z,28.57
2019-03-28T04:05:32.220Z,30.10
2019-03-28T04:08:00.919Z,32.48
2019-03-28T04:10:29.652Z,32.93
2019-03-28T04:12:58.201Z,30.82
2019-03-28T04:15:28.516Z,32.78
2019-03-28T04:17:57.071Z,28.85
2019-03-28T04:20:25.938Z,30.90
2019-03-28T04:22:56.013Z,34.75
2019-03-28T04:25:24.501Z,34.08
2019-03-28T04:27:53.365Z,31.40
2019-03-28T04:30:23.094Z,32.53
2019-03-28T04:32:51.651Z,33.05
2019-03-28T04:35:20.445Z,36.68
2019-03-28T04:37:49.395Z,34.67
2019-03-28T04:40:24.374Z,43.17
2019-03-28T04:42:53.184Z,36.03
2019-03-28T04:45:21.686Z,32.60
2019-03-28T04:47:50.227Z,31.62
2019-03-28T04:50:18.946Z,29.30
2019-03-28T04:52:47.440Z,32.17
2019-03-28T04:55:15.939Z,34.70
2019-03-28T04:57:44.913Z,30.32
2019-03-28T05:00:13.989Z,33.38
2019-03-28T05:02:45.817Z,34.78
2019-03-28T05:05:13.101Z,30.55
2019-03-28T05:07:42.358Z,35.55
2019-03-28T05:10:11.505Z,35.65
2019-03-28T05:12:40.399Z,31.55
2019-03-28T05:15:10.001Z,38.63
2019-03-28T05:17:38.500Z,72.65
2019-03-28T05:20:07.573Z,315.70
2019-03-28T05:22:36.370Z,38.45
2019-03-28T05:25:06.039Z,43.45
2019-03-28T05:27:34.838Z,40.67
2019-03-28T05:30:06.653Z,36.58
2019-03-28T05:32:35.469Z,37.98
2019-03-28T05:35:05.945Z,32.67
2019-03-28T05:37:34.404Z,35.92
2019-03-28T05:40:07.367Z,34.00
2019-03-28T05:42:35.906Z,29.10
2019-03-28T05:45:06.686Z,37.90
2019-03-28T05:47:35.530Z,35.65
2019-03-28T05:50:06.213Z,29.98
2019-03-28T05:52:34.691Z,37.28
2019-03-28T05:55:05.365Z,32.70
2019-03-28T05:57:33.791Z,36.15
2019-03-28T06:00:02.195Z,36.23
2019-03-28T06:02:30.806Z,31.48
2019-03-28T06:04:59.257Z,36.58
2019-03-28T06:07:27.754Z,38.80
2019-03-28T06:09:56.567Z,34.23
2019-03-28T06:12:24.998Z,39.73
2019-03-28T06:14:53.510Z,38.40
2019-03-28T06:17:24.817Z,40.95
2019-03-28T06:19:53.248Z,37.63
2019-03-28T06:22:21.672Z,36.88
2019-03-28T06:24:50.475Z,47.75
2019-03-28T06:27:19.160Z,40.65
2019-03-28T06:29:47.615Z,36.48
2019-03-28T06:32:16.229Z,35.98
2019-03-28T06:34:44.673Z,42.27
2019-03-28T06:37:13.094Z,41.45
2019-03-28T06:39:41.674Z,40.58
2019-03-28T06:42:10.191Z,41.40
2019-03-28T06:44:38.749Z,40.92
2019-03-28T06:47:07.891Z,37.28
2019-03-28T06:49:36.414Z,42.67
2019-03-28T06:52:06.455Z,39.92
2019-03-28T06:54:36.424Z,42.95
2019-03-28T06:57:04.859Z,35.55
2019-03-28T06:59:37.627Z,37.67
2019-03-28T07:02:03.825Z,40.67
2019-03-28T07:04:32.274Z,43.15
2019-03-28T07:07:00.713Z,38.45
2019-03-28T07:09:29.283Z,35.95
2019-03-28T07:11:57.699Z,39.65
2019-03-28T07:14:26.166Z,40.03
2019-03-28T07:16:54.856Z,42.00
2019-03-28T07:19:23.286Z,41.20
2019-03-28T07:21:51.817Z,42.75
2019-03-28T07:24:20.477Z,39.55
2019-03-28T07:26:48.973Z,36.13
2019-03-28T07:29:17.524Z,42.65
2019-03-28T07:31:46.288Z,39.10
2019-03-28T07:34:14.917Z,41.75
2019-03-28T07:36:43.420Z,46.65
2019-03-28T07:39:12.275Z,46.88
2019-03-28T07:41:40.796Z,46.28
2019-03-28T07:44:09.404Z,37.40
2019-03-28T07:46:38.172Z,40.00
2019-03-28T07:49:06.721Z,43.13
2019-03-28T07:51:35.140Z,45.83
2019-03-28T07:54:04.327Z,43.60
2019-03-28T07:56:32.764Z,43.95
2019-03-28T07:59:01.466Z,41.05
2019-03-28T08:01:31.251Z,40.92
2019-03-28T08:03:59.691Z,41.55
2019-03-28T08:06:28.474Z,44.48
2019-03-28T08:08:57.772Z,45.00
2019-03-28T08:11:27.408Z,54.50
2019-03-28T08:13:55.999Z,46.00
2019-03-28T08:16:24.824Z,48.90
2019-03-28T08:18:53.270Z,51.20
2019-03-28T08:21:21.958Z,44.83
2019-03-28T08:23:50.872Z,44.50
2019-03-28T08:26:19.302Z,41.60
2019-03-28T08:28:47.762Z,46.10
2019-03-28T08:31:16.535Z,46.25
2019-03-28T08:33:45.198Z,44.70
2019-03-28T08:36:15.082Z,45.17
2019-03-28T08:38:45.682Z,41.23
2019-03-28T08:41:14.175Z,51.25
2019-03-28T08:43:42.743Z,44.80
2019-03-28T08:46:11.637Z,52.33
2019-03-28T08:48:40.134Z,41.90
2019-03-28T08:51:08.580Z,47.05
2019-03-28T08:53:37.096Z,44.85
2019-03-28T08:56:05.597Z,49.95
2019-03-28T08:58:37.853Z,47.40
2019-03-28T09:01:06.356Z,41.15
2019-03-28T09:03:34.834Z,40.85
2019-03-28T09:06:03.266Z,43.15
2019-03-28T09:08:31.886Z,43.60
2019-03-28T09:11:00.398Z,36.93
2019-03-28T09:13:28.827Z,31.05
2019-03-28T09:15:57.534Z,33.13
2019-03-28T09:18:25.955Z,44.58
2019-03-28T09:20:54.414Z,35.70
2019-03-28T09:23:24.659Z,37.17
2019-03-28T09:25:53.138Z,31.97
2019-03-28T09:28:21.635Z,31.50
2019-03-28T09:30:50.234Z,38.60
2019-03-28T09:33:18.881Z,31.97
2019-03-28T09:35:47.350Z,39.08
2019-03-28T09:38:16.015Z,31.60
2019-03-28T09:40:44.645Z,29.10
2019-03-28T09:43:13.153Z,31.02
2019-03-28T09:45:42.081Z,28.98
2019-03-28T09:48:11.856Z,31.65
2019-03-28T09:50:40.574Z,29.70
2019-03-28T09:53:09.182Z,27.17
2019-03-28T09:55:37.645Z,22.52
2019-03-28T09:58:06.148Z,27.07
2019-03-28T10:00:34.944Z,28.10
2019-03-28T10:03:03.426Z,26.02
2019-03-28T10:05:31.899Z,26.40
2019-03-28T10:08:00.484Z,33.13
2019-03-28T10:10:28.943Z,30.30
2019-03-28T10:12:57.536Z,29.37
2019-03-28T10:15:26.213Z,28.50
2019-03-28T10:17:54.875Z,32.50
2019-03-28T10:20:23.716Z,31.87
2019-03-28T10:22:52.461Z,28.70
2019-03-28T10:25:20.959Z,37.30
2019-03-28T10:27:49.485Z,26.50
2019-03-28T10:30:21.149Z,32.23
2019-03-28T10:32:49.923Z,23.85
2019-03-28T10:35:27.856Z,29.20
2019-03-28T10:37:56.305Z,41.10
2019-03-28T10:40:24.790Z,34.58
2019-03-28T10:42:53.537Z,34.35
2019-03-28T10:45:22.042Z,33.38
2019-03-28T10:47:50.488Z,33.08
2019-03-28T10:50:19.220Z,37.70
2019-03-28T10:52:47.701Z,35.50
2019-03-28T10:55:16.735Z,35.38
2019-03-28T10:57:45.658Z,34.48
2019-03-28T11:00:23.976Z,34.88
2019-03-28T11:02:44.991Z,30.23
2019-03-28T11:05:14.487Z,32.10
2019-03-28T11:07:43.143Z,34.67
2019-03-28T11:10:11.686Z,28.77
2019-03-28T11:12:40.434Z,26.45
2019-03-28T11:15:09.701Z,29.12
2019-03-28T11:17:38.205Z,25.35
2019-03-28T11:20:40.310Z,33.83
2019-03-28T11:23:08.885Z,29.37
2019-03-28T11:25:37.415Z,24.57
2019-03-28T11:28:07.248Z,26.87
2019-03-28T11:30:35.861Z,35.98
2019-03-28T11:33:06.403Z,24.32
2019-03-28T11:35:36.791Z,22.20
2019-03-28T11:38:05.299Z,24.90
2019-03-28T11:40:33.967Z,25.02
2019-03-28T11:43:03.059Z,29.55
2019-03-28T11:45:31.646Z,18.48
2019-03-28T11:48:00.272Z,23.25
2019-03-28T11:50:29.785Z,21.42
2019-03-28T11:52:58.370Z,17.65
2019-03-28T11:55:26.807Z,26.02
2019-03-28T11:57:57.046Z,18.12
2019-03-28T12:00:25.550Z,22.37
2019-03-28T12:02:55.045Z,21.10
2019-03-28T12:05:23.912Z,21.42
2019-03-28T12:07:52.391Z,20.92
2019-03-28T12:10:20.957Z,23.73
2019-03-28T12:12:49.895Z,23.20
2019-03-28T12:15:18.462Z,17.12
2019-03-28T12:17:47.098Z,19.35
2019-03-28T12:20:15.882Z,21.57
2019-03-28T12:22:45.828Z,25.12
2019-03-28T12:25:14.715Z,23.47
2019-03-28T12:27:44.066Z,24.30
2019-03-28T12:30:15.965Z,20.75
2019-03-28T12:32:43.893Z,24.20
2019-03-28T12:35:12.810Z,19.48
2019-03-28T12:37:41.545Z,24.02
2019-03-28T12:40:10.652Z,23.22
2019-03-28T12:42:39.455Z,23.62
2019-03-28T12:45:10.538Z,25.12
2019-03-28T12:47:42.664Z,27.05
2019-03-28T12:50:11.670Z,23.22
2019-03-28T12:52:41.279Z,25.27
2019-03-28T12:55:10.215Z,26.65
2019-03-28T12:57:38.813Z,28.65
2019-03-28T13:00:08.996Z,26.42
2019-03-28T13:02:37.555Z,23.35
2019-03-28T13:05:08.946Z,23.02
2019-03-28T13:07:37.543Z,28.47
2019-03-28T13:10:09.144Z,29.50
2019-03-28T13:12:38.000Z,26.12
2019-03-28T13:15:06.990Z,25.90
2019-03-28T13:17:35.709Z,39.60
2019-03-28T13:20:07.121Z,33.10
2019-03-28T13:22:35.602Z,29.67
2019-03-28T13:25:06.421Z,32.35
2019-03-28T13:27:36.556Z,29.97
2019-03-28T13:30:10.875Z,29.18
2019-03-28T13:32:42.040Z,30.72
2019-03-28T13:35:10.625Z,30.52
2019-03-28T13:37:39.066Z,25.95
2019-03-28T13:40:15.609Z,27.67
2019-03-28T13:42:44.132Z,28.55
2019-03-28T13:45:13.158Z,32.90
2019-03-28T13:47:41.730Z,28.07
2019-03-28T13:50:11.499Z,33.60
2019-03-28T13:52:41.381Z,32.65
2019-03-28T13:55:10.267Z,29.50
2019-03-28T13:57:38.758Z,31.27
2019-03-28T14:00:09.016Z,36.03
2019-03-28T14:02:37.789Z,29.95
2019-03-28T14:05:08.067Z,32.40
2019-03-28T14:07:36.847Z,31.42
2019-03-28T14:10:09.322Z,30.43
2019-03-28T14:12:38.303Z,27.87
2019-03-28T14:15:07.884Z,32.23
2019-03-28T14:17:37.392Z,28.45
2019-03-28T14:20:07.874Z,34.85
2019-03-28T14:22:36.995Z,25.55
2019-03-28T14:25:06.585Z,33.70
2019-03-28T14:27:35.074Z,32.60
2019-03-28T14:30:04.599Z,31.02
2019-03-28T14:32:33.347Z,29.37
2019-03-28T14:35:02.074Z,29.40
2019-03-28T14:37:30.590Z,33.95
2019-03-28T14:39:59.891Z,38.80
2019-03-28T14:42:29.191Z,32.50
2019-03-28T14:44:57.598Z,29.55
2019-03-28T14:47:27.030Z,35.95
2019-03-28T14:49:55.577Z,38.50
2019-03-28T14:52:24.447Z,36.15
2019-03-28T14:54:53.600Z,30.55
2019-03-28T14:57:22.286Z,32.63
2019-03-28T14:59:51.536Z,33.28
2019-03-28T15:02:20.995Z,32.50
2019-03-28T15:04:49.492Z,37.48
2019-03-28T15:07:17.949Z,42.88
2019-03-28T15:09:46.641Z,39.73
2019-03-28T15:12:15.141Z,43.65
2019-03-28T15:14:45.179Z,43.78
2019-03-28T15:17:14.336Z,49.18
2019-03-28T15:19:42.868Z,41.98
2019-03-28T15:22:12.547Z,48.68
2019-03-28T15:24:41.676Z,54.55
2019-03-28T15:27:10.105Z,44.25
2019-03-28T15:29:38.654Z,47.45
2019-03-28T15:32:07.996Z,44.03
2019-03-28T15:34:37.969Z,41.05
2019-03-28T15:37:06.500Z,42.78
2019-03-28T15:39:35.026Z,40.08
2019-03-28T15:42:03.542Z,37.88
2019-03-28T15:44:32.082Z,36.90
2019-03-28T15:47:00.669Z,35.40
2019-03-28T15:49:32.231Z,39.13
2019-03-28T15:52:03.228Z,34.55
2019-03-28T15:54:31.242Z,33.73
2019-03-28T15:56:59.727Z,43.50
2019-03-28T15:59:28.170Z,39.08
2019-03-28T16:01:59.846Z,33.75
2019-03-28T16:04:27.021Z,35.65
2019-03-28T16:06:55.579Z,37.95
2019-03-28T16:09:24.081Z,37.15
2019-03-28T16:12:02.467Z,41.13
2019-03-28T16:14:22.801Z,39.67
2019-03-28T16:16:51.627Z,45.70
2019-03-28T16:19:20.320Z,44.30
2019-03-28T16:21:48.748Z,48.65
2019-03-28T16:24:17.359Z,49.33
2019-03-28T16:26:45.784Z,49.40
2019-03-28T16:29:14.409Z,48.48
2019-03-28T16:31:43.091Z,57.40
2019-03-28T16:34:11.513Z,51.30
2019-03-28T16:36:39.990Z,48.92
2019-03-28T16:39:08.749Z,54.88
2019-03-28T16:41:37.346Z,55.55
2019-03-28T16:44:05.904Z,47.83
2019-03-28T16:46:34.931Z,55.85
2019-03-28T16:49:03.546Z,52.53
2019-03-28T16:51:32.157Z,48.15
2019-03-28T16:54:01.660Z,48.28
2019-03-28T16:56:30.405Z,53.87
2019-03-28T16:58:58.958Z,55.90
2019-03-28T17:01:27.758Z,55.38
2019-03-28T17:03:56.329Z,52.98
2019-03-28T17:06:24.884Z,51.85
2019-03-28T17:08:53.970Z,55.58
2019-03-28T17:11:23.651Z,56.10
2019-03-28T17:13:52.201Z,50.08
2019-03-28T17:16:21.115Z,55.75
2019-03-28T17:18:49.632Z,55.43
2019-03-28T17:21:18.151Z,53.20
2019-03-28T17:23:46.914Z,53.23
2019-03-28T17:26:15.469Z,58.63
2019-03-28T17:28:43.956Z,55.45
2019-03-28T17:31:12.759Z,60.73
2019-03-28T17:33:41.244Z,54.38
2019-03-28T17:36:09.808Z,57.45
2019-03-28T17:38:39.017Z,57.60
2019-03-28T17:41:08.477Z,56.73
2019-03-28T17:43:36.953Z,56.25
2019-03-28T17:46:05.666Z,57.95
2019-03-28T17:48:34.166Z,59.93
2019-03-28T17:51:02.749Z,61.50
2019-03-28T17:53:32.478Z,62.08
2019-03-28T17:56:01.045Z,82.17
2019-03-28T17:58:29.511Z,62.40
2019-03-28T18:00:58.099Z,63.48
2019-03-28T18:03:31.485Z,57.10
2019-03-28T18:05:58.297Z,56.02
2019-03-28T18:08:27.349Z,54.35
2019-03-28T18:10:55.972Z,57.05
2019-03-28T18:13:25.047Z,57.40
2019-03-28T18:15:54.298Z,62.93
2019-03-28T18:18:22.824Z,58.15
2019-03-28T18:20:51.420Z,60.33
2019-03-28T18:23:22.011Z,63.73
2019-03-28T18:25:50.437Z,60.95
2019-03-28T18:28:19.108Z,56.53
2019-03-28T18:30:48.511Z,57.48
2019-03-28T18:33:17.038Z,57.15
2019-03-28T18:35:45.588Z,55.75
2019-03-28T18:38:14.540Z,57.10
2019-03-28T18:40:43.031Z,60.73
2019-03-28T18:43:11.869Z,60.88
2019-03-28T18:45:41.372Z,59.05
2019-03-28T18:48:11.268Z,60.95
2019-03-28T18:50:41.225Z,56.10
2019-03-28T18:53:10.152Z,66.67
2019-03-28T18:55:38.645Z,56.95
2019-03-28T18:58:07.087Z,54.80
2019-03-28T19:00:35.739Z,64.75
2019-03-28T19:03:04.161Z,60.67
2019-03-28T19:05:32.623Z,60.05
2019-03-28T19:08:01.835Z,60.43
2019-03-28T19:10:30.929Z,69.92
2019-03-28T19:12:59.459Z,64.82
2019-03-28T19:15:28.162Z,66.10
2019-03-28T19:17:56.613Z,89.32
2019-03-28T19:20:25.151Z,85.28
2019-03-28T19:22:54.071Z,64.12
2019-03-28T19:25:23.158Z,61.08
2019-03-28T19:27:51.802Z,62.13
2019-03-28T19:30:34.377Z,57.73
2019-03-28T19:33:06.505Z,72.40
2019-03-28T19:35:34.924Z,162.15
2019-03-28T19:38:04.574Z,67.42
2019-03-28T19:40:33.133Z,64.20
2019-03-28T19:43:01.615Z,63.38
2019-03-28T19:45:36.036Z,62.85
2019-03-28T19:48:06.408Z,57.35
2019-03-28T19:50:34.915Z,60.88
2019-03-28T19:53:06.427Z,61.95
2019-03-28T19:55:39.690Z,60.88
2019-03-28T19:58:07.077Z,54.93
2019-03-28T20:00:35.579Z,63.38
2019-03-28T20:03:04.562Z,60.98
2019-03-28T20:05:46.322Z,67.30
2019-03-28T20:08:14.665Z,59.55
2019-03-28T20:10:34.014Z,60.15
2019-03-28T20:13:05.251Z,61.80
2019-03-28T20:15:33.355Z,59.98
2019-03-28T20:18:02.987Z,60.38
2019-03-28T20:20:31.507Z,63.35
2019-03-28T20:23:00.191Z,61.37
2019-03-28T20:25:29.282Z,66.20
2019-03-28T20:27:57.807Z,66.25
2019-03-28T20:30:27.183Z,62.33
2019-03-28T20:32:56.948Z,76.57
2019-03-28T20:35:25.434Z,73.22
2019-03-28T20:37:53.888Z,70.92
2019-03-28T20:40:22.695Z,65.45
2019-03-28T20:42:51.116Z,64.42
2019-03-28T20:45:21.116Z,80.25
2019-03-28T20:47:50.873Z,77.50
2019-03-28T20:50:20.166Z,77.40
2019-03-28T20:52:48.604Z,73.15
2019-03-28T20:55:17.270Z,75.37
2019-03-28T20:57:45.700Z,74.37
2019-03-28T21:00:14.541Z,68.50
2019-03-28T21:02:43.191Z,66.20
2019-03-28T21:05:14.416Z,63.58
2019-03-28T21:07:42.122Z,68.40
2019-03-28T21:10:25.797Z,68.25
2019-03-28T21:12:54.870Z,63.85
2019-03-28T21:15:23.311Z,72.70
2019-03-28T21:17:51.893Z,76.80
2019-03-28T21:20:20.338Z,65.78
2019-03-28T21:22:48.759Z,69.22
2019-03-28T21:25:18.213Z,70.28
2019-03-28T21:27:46.791Z,71.80
2019-03-28T21:30:18.321Z,74.37
2019-03-28T21:32:55.348Z,71.02
2019-03-28T21:35:16.054Z,68.60
2019-03-28T21:37:44.462Z,70.80
2019-03-28T21:40:14.904Z,79.32
2019-03-28T21:42:43.333Z,88.20
2019-03-28T21:45:12.622Z,83.07
2019-03-28T21:47:41.278Z,75.20
2019-03-28T21:50:09.977Z,71.35
2019-03-28T21:52:38.482Z,67.53
2019-03-28T21:55:07.716Z,76.35
2019-03-28T21:57:37.307Z,63.70
2019-03-28T22:00:11.616Z,78.02
2019-03-28T22:02:40.169Z,79.35
2019-03-28T22:05:09.167Z,72.90
2019-03-28T22:07:37.679Z,72.70
2019-03-28T22:10:08.915Z,74.62
2019-03-28T22:12:37.581Z,87.90
2019-03-28T22:15:07.611Z,129.82
2019-03-28T22:17:36.472Z,75.90
2019-03-28T22:20:06.766Z,73.42
2019-03-28T22:22:36.127Z,74.47
2019-03-28T22:25:06.318Z,70.17
2019-03-28T22:27:34.734Z,77.53
2019-03-28T22:30:04.342Z,75.65
2019-03-28T22:32:32.770Z,76.15
2019-03-28T22:35:01.229Z,76.30
2019-03-28T22:37:30.090Z,72.75
2019-03-28T22:39:58.606Z,72.17
2019-03-28T22:42:27.172Z,74.30
2019-03-28T22:44:55.881Z,73.00
2019-03-28T22:47:24.386Z,74.47
2019-03-28T22:49:54.023Z,77.70
2019-03-28T22:52:22.858Z,77.78
2019-03-28T22:54:51.345Z,76.33
2019-03-28T22:57:19.778Z,101.47
2019-03-28T22:59:48.478Z,107.65
2019-03-28T23:02:16.889Z,82.47
2019-03-28T23:04:45.462Z,78.12
2019-03-28T23:07:14.585Z,73.62
2019-03-28T23:09:43.471Z,71.65
2019-03-28T23:12:11.897Z,70.32
2019-03-28T23:14:40.520Z,71.12
2019-03-28T23:17:09.042Z,70.35
2019-03-28T23:19:37.488Z,74.10
2019-03-28T23:22:07.280Z,66.65
2019-03-28T23:24:38.966Z,71.82
2019-03-28T23:27:06.771Z,74.15
2019-03-28T23:29:36.183Z,72.00
2019-03-28T23:32:05.225Z,72.80
2019-03-28T23:34:33.674Z,72.42
2019-03-28T23:37:02.468Z,69.17
2019-03-28T23:39:30.982Z,66.28
2019-03-28T23:41:59.449Z,77.25
2019-03-28T23:44:28.338Z,69.55
2019-03-28T23:46:56.762Z,69.92
2019-03-28T23:49:25.355Z,66.55
2019-03-28T23:51:54.057Z,71.97
2019-03-28T23:54:22.554Z,65.35
2019-03-28T23:56:50.962Z,65.85
2019-03-28T23:59:19.597Z,69.90
